createdAt,value
2018-12-29T00:00:12.446Z,100.0
2018-12-29T00:01:13.116Z,100.0
2018-12-29T00:02:13.789Z,100.0
2018-12-29T00:03:14.457Z,100.0
2018-12-29T00:04:15.128Z,100.0
2018-12-29T00:05:15.798Z,100.0
2018-12-29T00:06:16.468Z,100.0
2018-12-29T00:07:17.142Z,100.0
2018-12-29T00:08:17.811Z,100.0
2018-12-29T00:09:18.482Z,100.0
2018-12-29T00:10:19.153Z,100.0
2018-12-29T00:11:19.822Z,100.0
2018-12-29T00:12:20.491Z,100.0
2018-12-29T00:13:21.160Z,100.0
2018-12-29T00:14:21.830Z,100.0
2018-12-29T00:15:22.502Z,100.0
2018-12-29T00:16:23.172Z,100.0
2018-12-29T00:17:23.841Z,100.0
2018-12-29T00:18:24.511Z,100.0
2018-12-29T00:19:25.181Z,100.0
2018-12-29T00:20:25.855Z,100.0
2018-12-29T00:21:26.522Z,100.0
2018-12-29T00:22:27.193Z,100.0
2018-12-29T00:23:27.862Z,100.0
2018-12-29T00:24:28.532Z,100.0
2018-12-29T00:25:29.202Z,100.0
2018-12-29T00:26:29.922Z,100.0
2018-12-29T00:27:30.591Z,100.0
2018-12-29T00:28:31.261Z,100.0
2018-12-29T00:29:31.930Z,100.0
2018-12-29T00:30:32.602Z,100.0
2018-12-29T00:31:33.273Z,100.0
2018-12-29T00:32:33.942Z,100.0
2018-12-29T00:33:34.614Z,100.0
2018-12-29T00:34:35.284Z,100.0
2018-12-29T00:35:35.953Z,100.0
2018-12-29T00:36:36.623Z,100.0
2018-12-29T00:37:37.293Z,100.0
2018-12-29T00:38:37.964Z,100.0
2018-12-29T00:39:38.633Z,100.0
2018-12-29T00:40:39.306Z,100.0
2018-12-29T00:41:39.976Z,100.0
2018-12-29T00:42:40.645Z,100.0
2018-12-29T00:43:41.316Z,100.0
2018-12-29T00:44:41.987Z,100.0
2018-12-29T00:45:42.704Z,100.0
2018-12-29T00:46:43.376Z,100.0
2018-12-29T00:47:44.047Z,100.0
2018-12-29T00:48:44.719Z,100.0
2018-12-29T00:49:45.388Z,100.0
2018-12-29T00:50:46.058Z,100.0
2018-12-29T00:51:46.728Z,100.0
2018-12-29T00:52:47.400Z,100.0
2018-12-29T00:53:48.070Z,100.0
2018-12-29T00:54:48.738Z,100.0
2018-12-29T00:55:49.408Z,100.0
2018-12-29T00:56:50.080Z,100.0
2018-12-29T00:57:50.750Z,100.0
2018-12-29T00:58:51.420Z,100.0
2018-12-29T00:59:52.092Z,100.0
2018-12-29T01:00:52.762Z,100.0
2018-12-29T01:01:53.480Z,100.0
2018-12-29T01:02:54.152Z,100.0
2018-12-29T01:03:54.822Z,100.0
2018-12-29T01:04:55.492Z,100.0
2018-12-29T01:05:56.164Z,100.0
2018-12-29T01:06:56.832Z,100.0
2018-12-29T01:07:57.502Z,100.0
2018-12-29T01:08:58.172Z,100.0
2018-12-29T01:09:58.843Z,100.0
2018-12-29T01:10:59.512Z,100.0
2018-12-29T01:12:00.183Z,100.0
2018-12-29T01:13:00.853Z,100.0
2018-12-29T01:14:01.572Z,100.0
2018-12-29T01:15:02.259Z,100.0
2018-12-29T01:16:03.902Z,100.0
2018-12-29T01:17:04.572Z,100.0
2018-12-29T01:18:05.243Z,100.0
2018-12-29T01:19:05.913Z,100.0
2018-12-29T01:20:06.586Z,100.0
2018-12-29T01:21:07.253Z,100.0
2018-12-29T01:22:07.923Z,100.0
2018-12-29T01:23:08.634Z,100.0
2018-12-29T01:24:09.343Z,100.0
2018-12-29T01:25:09.976Z,100.0
2018-12-29T01:26:10.644Z,100.0
2018-12-29T01:27:11.318Z,100.0
2018-12-29T01:28:11.984Z,100.0
2018-12-29T01:29:12.655Z,100.0
2018-12-29T01:30:13.375Z,100.0
2018-12-29T01:31:14.046Z,100.0
2018-12-29T01:32:14.719Z,100.0
2018-12-29T01:33:15.387Z,100.0
2018-12-29T01:34:16.057Z,100.0
2018-12-29T01:35:16.727Z,100.0
2018-12-29T01:36:17.398Z,100.0
2018-12-29T01:37:18.116Z,100.0
2018-12-29T01:38:18.794Z,100.0
2018-12-29T01:39:19.454Z,100.0
2018-12-29T01:40:20.124Z,100.0
2018-12-29T01:41:20.795Z,100.0
2018-12-29T01:42:21.466Z,100.0
2018-12-29T01:43:22.135Z,100.0
2018-12-29T01:44:22.810Z,100.0
2018-12-29T01:45:23.477Z,100.0
2018-12-29T01:46:24.147Z,100.0
2018-12-29T01:47:24.817Z,100.0
2018-12-29T01:48:25.487Z,100.0
2018-12-29T01:49:26.158Z,100.0
2018-12-29T01:50:26.828Z,100.0
2018-12-29T01:51:27.563Z,100.0
2018-12-29T01:52:28.186Z,100.0
2018-12-29T01:53:28.857Z,100.0
2018-12-29T01:54:29.527Z,100.0
2018-12-29T01:55:30.197Z,100.0
2018-12-29T01:56:30.869Z,100.0
2018-12-29T01:57:31.542Z,100.0
2018-12-29T01:58:32.206Z,100.0
2018-12-29T01:59:32.876Z,100.0
2018-12-29T02:00:33.595Z,100.0
2018-12-29T02:01:34.264Z,100.0
2018-12-29T02:02:34.935Z,100.0
2018-12-29T02:03:35.606Z,100.0
2018-12-29T02:04:36.275Z,100.0
2018-12-29T02:05:36.946Z,100.0
2018-12-29T02:06:37.617Z,100.0
2018-12-29T02:07:38.289Z,100.0
2018-12-29T02:08:38.957Z,100.0
2018-12-29T02:09:39.628Z,100.0
2018-12-29T02:10:40.298Z,100.0
2018-12-29T02:11:40.966Z,100.0
2018-12-29T02:12:41.638Z,100.0
2018-12-29T02:13:42.306Z,100.0
2018-12-29T02:14:42.977Z,100.0
2018-12-29T02:15:43.646Z,100.0
2018-12-29T02:16:44.317Z,100.0
2018-12-29T02:17:44.987Z,100.0
2018-12-29T02:18:45.657Z,100.0
2018-12-29T02:19:46.331Z,100.0
2018-12-29T02:20:46.997Z,100.0
2018-12-29T02:21:47.668Z,100.0
2018-12-29T02:22:48.338Z,100.0
2018-12-29T02:23:49.007Z,100.0
2018-12-29T02:24:49.677Z,100.0
2018-12-29T02:25:50.345Z,100.0
2018-12-29T02:26:51.016Z,100.0
2018-12-29T02:27:51.686Z,100.0
2018-12-29T02:28:52.357Z,100.0
2018-12-29T02:29:53.024Z,100.0
2018-12-29T02:30:53.695Z,100.0
2018-12-29T02:31:54.365Z,100.0
2018-12-29T02:32:55.035Z,100.0
2018-12-29T02:33:55.708Z,100.0
2018-12-29T02:34:56.378Z,100.0
2018-12-29T02:35:57.081Z,100.0
2018-12-29T02:36:57.716Z,100.0
2018-12-29T02:37:58.386Z,100.0
2018-12-29T02:38:59.057Z,100.0
2018-12-29T02:39:59.737Z,100.0
2018-12-29T02:41:00.445Z,99.6
2018-12-29T02:42:01.116Z,99.7
2018-12-29T02:43:01.784Z,99.7
2018-12-29T02:44:02.501Z,99.7
2018-12-29T02:45:03.173Z,99.4
2018-12-29T02:46:03.838Z,99.4
2018-12-29T02:47:04.510Z,99.8
2018-12-29T02:48:05.177Z,99.2
2018-12-29T02:49:05.846Z,99.2
2018-12-29T02:50:06.514Z,99.7
2018-12-29T02:51:07.183Z,98.7
2018-12-29T02:52:07.851Z,98.3
2018-12-29T02:53:08.522Z,98.3
2018-12-29T02:54:09.188Z,98.5
2018-12-29T02:55:09.859Z,98.5
2018-12-29T02:56:10.533Z,98.4
2018-12-29T02:57:11.198Z,98.1
2018-12-29T02:58:11.869Z,97.9
2018-12-29T02:59:12.538Z,97.9
2018-12-29T03:00:13.209Z,97.9
2018-12-29T03:01:13.877Z,98.0
2018-12-29T03:02:14.551Z,97.8
2018-12-29T03:03:15.268Z,97.7
2018-12-29T03:04:15.936Z,97.7
2018-12-29T03:05:16.607Z,98.1
2018-12-29T03:06:17.285Z,97.9
2018-12-29T03:07:17.946Z,97.9
2018-12-29T03:08:18.617Z,97.9
2018-12-29T03:09:19.286Z,98.2
2018-12-29T03:10:19.953Z,97.7
2018-12-29T03:11:20.623Z,97.7
2018-12-29T03:12:21.294Z,97.4
2018-12-29T03:13:21.965Z,97.9
2018-12-29T03:14:22.630Z,98.2
2018-12-29T03:15:23.299Z,98.4
2018-12-29T03:16:23.970Z,98.3
2018-12-29T03:17:24.641Z,98.2
2018-12-29T03:18:25.309Z,98.6
2018-12-29T03:19:25.984Z,98.4
2018-12-29T03:20:26.649Z,98.5
2018-12-29T03:21:27.316Z,98.4
2018-12-29T03:22:27.985Z,98.7
2018-12-29T03:23:28.657Z,99.0
2018-12-29T03:24:29.326Z,99.7
2018-12-29T03:25:29.995Z,99.6
2018-12-29T03:26:30.663Z,99.5
2018-12-29T03:27:31.334Z,99.6
2018-12-29T03:28:32.002Z,99.5
2018-12-29T03:29:32.671Z,99.8
2018-12-29T03:30:33.344Z,99.6
2018-12-29T03:31:34.011Z,99.6
2018-12-29T03:32:34.683Z,99.6
2018-12-29T03:33:35.354Z,99.6
2018-12-29T03:34:36.026Z,99.5
2018-12-29T03:35:36.686Z,99.7
2018-12-29T03:36:37.371Z,100.0
2018-12-29T03:37:38.024Z,99.9
2018-12-29T03:38:38.695Z,100.0
2018-12-29T03:39:39.365Z,99.7
2018-12-29T03:40:40.034Z,99.4
2018-12-29T03:41:40.705Z,99.3
2018-12-29T03:42:41.374Z,99.6
2018-12-29T03:43:42.046Z,99.3
2018-12-29T03:44:42.713Z,99.3
2018-12-29T03:45:49.112Z,99.2
2018-12-29T03:46:44.095Z,99.7
2018-12-29T03:47:44.764Z,99.7
2018-12-29T03:48:45.435Z,99.3
2018-12-29T03:49:46.102Z,99.7
2018-12-29T03:50:46.773Z,99.8
2018-12-29T03:51:47.441Z,100.0
2018-12-29T03:52:48.117Z,100.0
2018-12-29T03:53:48.785Z,100.0
2018-12-29T03:54:49.454Z,100.0
2018-12-29T03:55:50.127Z,100.0
2018-12-29T03:56:50.847Z,100.0
2018-12-29T03:57:51.516Z,100.0
2018-12-29T03:58:52.191Z,99.8
2018-12-29T03:59:52.855Z,100.0
2018-12-29T04:00:53.529Z,100.0
2018-12-29T04:01:54.248Z,100.0
2018-12-29T04:02:54.917Z,100.0
2018-12-29T04:03:55.636Z,100.0
2018-12-29T04:04:56.306Z,100.0
2018-12-29T04:05:56.977Z,100.0
2018-12-29T04:06:57.697Z,100.0
2018-12-29T04:07:58.366Z,100.0
2018-12-29T04:08:59.037Z,100.0
2018-12-29T04:09:59.707Z,100.0
2018-12-29T04:11:00.381Z,100.0
2018-12-29T04:12:01.050Z,100.0
2018-12-29T04:13:01.725Z,100.0
2018-12-29T04:14:02.440Z,100.0
2018-12-29T04:15:03.108Z,100.0
2018-12-29T04:16:03.784Z,100.0
2018-12-29T04:17:04.504Z,100.0
2018-12-29T04:18:05.168Z,100.0
2018-12-29T04:19:05.837Z,100.0
2018-12-29T04:20:06.510Z,100.0
2018-12-29T04:21:07.230Z,100.0
2018-12-29T04:22:07.941Z,100.0
2018-12-29T04:23:08.577Z,100.0
2018-12-29T04:24:09.247Z,100.0
2018-12-29T04:25:09.915Z,100.0
2018-12-29T04:26:10.586Z,100.0
2018-12-29T04:27:11.258Z,100.0
2018-12-29T04:28:11.926Z,100.0
2018-12-29T04:29:12.599Z,100.0
2018-12-29T04:30:13.266Z,100.0
2018-12-29T04:31:13.936Z,100.0
2018-12-29T04:32:14.610Z,100.0
2018-12-29T04:33:15.278Z,100.0
2018-12-29T04:34:15.949Z,100.0
2018-12-29T04:35:16.618Z,100.0
2018-12-29T04:36:17.288Z,100.0
2018-12-29T04:37:17.988Z,100.0
2018-12-29T04:38:18.701Z,100.0
2018-12-29T04:39:19.370Z,100.0
2018-12-29T04:40:20.041Z,100.0
2018-12-29T04:41:20.711Z,100.0
2018-12-29T04:42:21.382Z,100.0
2018-12-29T04:43:22.051Z,100.0
2018-12-29T04:44:22.722Z,100.0
2018-12-29T04:45:23.393Z,100.0
2018-12-29T04:46:24.063Z,100.0
2018-12-29T04:47:24.734Z,100.0
2018-12-29T04:48:25.406Z,100.0
2018-12-29T04:49:26.074Z,100.0
2018-12-29T04:50:26.746Z,100.0
2018-12-29T04:51:27.416Z,100.0
2018-12-29T04:52:28.085Z,100.0
2018-12-29T04:53:28.756Z,100.0
2018-12-29T04:54:29.427Z,100.0
2018-12-29T04:55:30.096Z,100.0
2018-12-29T04:56:30.765Z,100.0
2018-12-29T04:57:31.437Z,100.0
2018-12-29T04:58:32.107Z,100.0
2018-12-29T04:59:32.779Z,100.0
2018-12-29T05:00:33.448Z,100.0
2018-12-29T05:01:34.118Z,100.0
2018-12-29T05:02:34.788Z,100.0
2018-12-29T05:03:35.458Z,100.0
2018-12-29T05:04:36.128Z,100.0
2018-12-29T05:05:36.801Z,100.0
2018-12-29T05:06:37.470Z,100.0
2018-12-29T05:07:38.141Z,100.0
2018-12-29T05:08:38.812Z,100.0
2018-12-29T05:09:39.482Z,100.0
2018-12-29T05:10:40.153Z,100.0
2018-12-29T05:11:40.822Z,100.0
2018-12-29T05:12:41.490Z,100.0
2018-12-29T05:13:42.162Z,100.0
2018-12-29T05:14:42.830Z,100.0
2018-12-29T05:15:43.500Z,100.0
2018-12-29T05:16:44.170Z,100.0
2018-12-29T05:17:44.841Z,100.0
2018-12-29T05:18:45.512Z,100.0
2018-12-29T05:19:46.232Z,100.0
2018-12-29T05:20:46.855Z,100.0
2018-12-29T05:21:47.575Z,100.0
2018-12-29T05:22:48.245Z,100.0
2018-12-29T05:23:48.916Z,100.0
2018-12-29T05:24:49.586Z,100.0
2018-12-29T05:25:50.256Z,100.0
2018-12-29T05:26:50.927Z,100.0
2018-12-29T05:27:51.598Z,100.0
2018-12-29T05:28:52.267Z,100.0
2018-12-29T05:29:52.938Z,100.0
2018-12-29T05:30:53.609Z,100.0
2018-12-29T05:31:54.279Z,100.0
2018-12-29T05:32:54.949Z,100.0
2018-12-29T05:33:55.620Z,100.0
2018-12-29T05:34:56.340Z,100.0
2018-12-29T05:35:57.008Z,100.0
2018-12-29T05:36:57.679Z,100.0
2018-12-29T05:37:58.349Z,100.0
2018-12-29T05:38:59.019Z,100.0
2018-12-29T05:39:59.691Z,100.0
2018-12-29T05:41:00.359Z,100.0
2018-12-29T05:42:01.027Z,100.0
2018-12-29T05:43:01.704Z,100.0
2018-12-29T05:44:02.419Z,100.0
2018-12-29T05:45:03.748Z,100.0
2018-12-29T05:46:04.441Z,100.0
2018-12-29T05:47:05.111Z,100.0
2018-12-29T05:48:05.829Z,100.0
2018-12-29T05:49:06.501Z,100.0
2018-12-29T05:50:07.172Z,100.0
2018-12-29T05:51:07.841Z,100.0
2018-12-29T05:52:08.512Z,100.0
2018-12-29T05:53:09.182Z,100.0
2018-12-29T05:54:09.850Z,100.0
2018-12-29T05:55:10.518Z,100.0
2018-12-29T05:56:11.189Z,100.0
2018-12-29T05:57:11.857Z,100.0
2018-12-29T05:58:12.528Z,100.0
2018-12-29T05:59:13.199Z,100.0
2018-12-29T06:00:13.867Z,100.0
2018-12-29T06:01:14.536Z,100.0
2018-12-29T06:02:15.208Z,100.0
2018-12-29T06:03:15.877Z,100.0
2018-12-29T06:04:16.547Z,100.0
2018-12-29T06:05:17.216Z,100.0
2018-12-29T06:06:17.887Z,100.0
2018-12-29T06:07:18.558Z,100.0
2018-12-29T06:08:19.228Z,100.0
2018-12-29T06:09:19.900Z,100.0
2018-12-29T06:10:20.569Z,100.0
2018-12-29T06:11:21.246Z,100.0
2018-12-29T06:12:21.908Z,100.0
2018-12-29T06:13:22.578Z,100.0
2018-12-29T06:14:23.247Z,100.0
2018-12-29T06:15:23.917Z,100.0
2018-12-29T06:16:27.883Z,100.0
2018-12-29T06:17:25.302Z,100.0
2018-12-29T06:18:25.971Z,100.0
2018-12-29T06:19:26.642Z,100.0
2018-12-29T06:20:27.312Z,100.0
2018-12-29T06:21:27.982Z,100.0
2018-12-29T06:22:28.653Z,100.0
2018-12-29T06:23:29.321Z,100.0
2018-12-29T06:24:29.994Z,100.0
2018-12-29T06:25:30.709Z,100.0
2018-12-29T06:26:31.428Z,100.0
2018-12-29T06:27:32.097Z,100.0
2018-12-29T06:28:32.766Z,100.0
2018-12-29T06:29:33.438Z,100.0
2018-12-29T06:30:34.109Z,100.0
2018-12-29T06:31:34.828Z,100.0
2018-12-29T06:32:35.497Z,100.0
2018-12-29T06:33:36.189Z,100.0
2018-12-29T06:34:36.858Z,100.0
2018-12-29T06:35:37.531Z,100.0
2018-12-29T06:36:38.200Z,100.0
2018-12-29T06:37:38.920Z,100.0
2018-12-29T06:38:39.586Z,100.0
2018-12-29T06:39:40.256Z,100.0
2018-12-29T06:40:40.926Z,100.0
2018-12-29T06:41:41.596Z,100.0
2018-12-29T06:42:42.265Z,100.0
2018-12-29T06:43:42.935Z,100.0
2018-12-29T06:44:43.610Z,100.0
2018-12-29T06:45:44.276Z,100.0
2018-12-29T06:46:44.948Z,100.0
2018-12-29T06:47:45.617Z,100.0
2018-12-29T06:48:46.287Z,100.0
2018-12-29T06:49:46.957Z,100.0
2018-12-29T06:50:47.676Z,100.0
2018-12-29T06:51:48.346Z,100.0
2018-12-29T06:52:49.017Z,100.0
2018-12-29T06:53:49.688Z,100.0
2018-12-29T06:54:50.359Z,100.0
2018-12-29T06:55:51.025Z,100.0
2018-12-29T06:56:51.698Z,100.0
2018-12-29T06:57:52.377Z,100.0
2018-12-29T06:58:53.049Z,100.0
2018-12-29T06:59:53.719Z,100.0
2018-12-29T07:00:54.421Z,100.0
2018-12-29T07:01:55.066Z,100.0
2018-12-29T07:02:55.733Z,100.0
2018-12-29T07:03:56.403Z,100.0
2018-12-29T07:04:57.075Z,100.0
2018-12-29T07:05:57.746Z,100.0
2018-12-29T07:06:58.466Z,100.0
2018-12-29T07:07:59.139Z,100.0
2018-12-29T07:08:59.809Z,100.0
2018-12-29T07:10:00.480Z,100.0
2018-12-29T07:11:01.153Z,100.0
2018-12-29T07:12:01.826Z,100.0
2018-12-29T07:13:02.497Z,100.0
2018-12-29T07:14:03.167Z,100.0
2018-12-29T07:15:03.839Z,100.0
2018-12-29T07:16:04.509Z,100.0
2018-12-29T07:17:05.231Z,100.0
2018-12-29T07:18:05.902Z,100.0
2018-12-29T07:19:06.575Z,100.0
2018-12-29T07:20:07.246Z,100.0
2018-12-29T07:21:07.918Z,100.0
2018-12-29T07:22:08.639Z,100.0
2018-12-29T07:23:09.311Z,100.0
2018-12-29T07:24:09.982Z,100.0
2018-12-29T07:25:10.654Z,100.0
2018-12-29T07:26:11.327Z,100.0
2018-12-29T07:27:12.010Z,100.0
2018-12-29T07:28:12.720Z,100.0
2018-12-29T07:29:13.392Z,100.0
2018-12-29T07:30:14.062Z,100.0
2018-12-29T07:31:14.734Z,100.0
2018-12-29T07:32:15.406Z,100.0
2018-12-29T07:33:16.079Z,100.0
2018-12-29T07:34:16.751Z,100.0
2018-12-29T07:35:17.423Z,100.0
2018-12-29T07:36:18.097Z,100.0
2018-12-29T07:37:18.771Z,100.0
2018-12-29T07:38:19.442Z,100.0
2018-12-29T07:39:20.117Z,100.0
2018-12-29T07:40:20.788Z,100.0
2018-12-29T07:41:21.461Z,100.0
2018-12-29T07:42:22.135Z,100.0
2018-12-29T07:43:22.807Z,100.0
2018-12-29T07:44:23.482Z,100.0
2018-12-29T07:45:24.155Z,100.0
2018-12-29T07:46:24.832Z,100.0
2018-12-29T07:47:25.503Z,100.0
2018-12-29T07:48:26.224Z,100.0
2018-12-29T07:49:26.945Z,100.0
2018-12-29T07:50:27.617Z,100.0
2018-12-29T07:51:28.293Z,100.0
2018-12-29T07:52:28.967Z,100.0
2018-12-29T07:53:29.639Z,100.0
2018-12-29T07:54:30.312Z,100.0
2018-12-29T07:55:30.986Z,100.0
2018-12-29T07:56:31.659Z,100.0
2018-12-29T07:57:32.330Z,100.0
2018-12-29T07:58:33.003Z,100.0
2018-12-29T07:59:33.727Z,100.0
2018-12-29T08:00:34.353Z,100.0
2018-12-29T08:01:35.024Z,100.0
2018-12-29T08:02:35.697Z,100.0
2018-12-29T08:03:36.372Z,100.0
2018-12-29T08:04:37.045Z,100.0
2018-12-29T08:05:37.718Z,100.0
2018-12-29T08:06:38.390Z,100.0
2018-12-29T08:07:39.065Z,100.0
2018-12-29T08:08:39.737Z,100.0
2018-12-29T08:09:40.409Z,100.0
2018-12-29T08:10:41.084Z,100.0
2018-12-29T08:11:41.757Z,100.0
2018-12-29T08:12:42.430Z,100.0
2018-12-29T08:13:43.110Z,100.0
2018-12-29T08:14:43.777Z,100.0
2018-12-29T08:15:44.453Z,100.0
2018-12-29T08:16:45.128Z,100.0
2018-12-29T08:17:45.804Z,100.0
2018-12-29T08:18:46.525Z,100.0
2018-12-29T08:19:47.199Z,100.0
2018-12-29T08:20:47.920Z,100.0
2018-12-29T08:21:48.594Z,100.0
2018-12-29T08:22:49.271Z,100.0
2018-12-29T08:23:49.946Z,100.0
2018-12-29T08:24:50.625Z,100.0
2018-12-29T08:25:51.293Z,100.0
2018-12-29T08:26:51.966Z,100.0
2018-12-29T08:27:52.643Z,100.0
2018-12-29T08:28:53.316Z,100.0
2018-12-29T08:29:53.991Z,100.0
2018-12-29T08:30:54.664Z,100.0
2018-12-29T08:31:55.341Z,100.0
2018-12-29T08:32:56.018Z,100.0
2018-12-29T08:33:56.691Z,100.0
2018-12-29T08:34:57.415Z,100.0
2018-12-29T08:35:58.090Z,100.0
2018-12-29T08:36:58.764Z,100.0
2018-12-29T08:37:59.439Z,100.0
2018-12-29T08:39:00.114Z,100.0
2018-12-29T08:40:00.791Z,100.0
2018-12-29T08:41:01.466Z,100.0
2018-12-29T08:42:02.140Z,100.0
2018-12-29T08:43:02.815Z,100.0
2018-12-29T08:44:03.491Z,100.0
2018-12-29T08:45:04.165Z,100.0
2018-12-29T08:46:04.841Z,100.0
2018-12-29T08:47:05.515Z,100.0
2018-12-29T08:48:06.189Z,100.0
2018-12-29T08:49:06.864Z,100.0
2018-12-29T08:50:13.049Z,100.0
2018-12-29T08:51:09.206Z,100.0
2018-12-29T08:52:09.882Z,100.0
2018-12-29T08:53:10.556Z,100.0
2018-12-29T08:54:11.235Z,100.0
2018-12-29T08:55:11.956Z,100.0
2018-12-29T08:56:12.629Z,100.0
2018-12-29T08:57:13.304Z,100.0
2018-12-29T08:58:13.977Z,100.0
2018-12-29T08:59:14.653Z,100.0
2018-12-29T09:00:15.329Z,100.0
2018-12-29T09:01:16.074Z,100.0
2018-12-29T09:02:16.708Z,100.0
2018-12-29T09:03:17.382Z,100.0
2018-12-29T09:04:18.056Z,100.0
2018-12-29T09:05:18.731Z,100.0
2018-12-29T09:06:19.409Z,100.0
2018-12-29T09:07:20.080Z,100.0
2018-12-29T09:08:20.756Z,100.0
2018-12-29T09:09:21.429Z,100.0
2018-12-29T09:10:22.105Z,100.0
2018-12-29T09:11:22.780Z,100.0
2018-12-29T09:12:23.457Z,100.0
2018-12-29T09:13:24.130Z,100.0
2018-12-29T09:14:24.804Z,100.0
2018-12-29T09:15:25.480Z,100.0
2018-12-29T09:16:26.165Z,100.0
2018-12-29T09:17:26.831Z,100.0
2018-12-29T09:18:27.553Z,100.0
2018-12-29T09:19:28.237Z,100.0
2018-12-29T09:20:28.903Z,100.0
2018-12-29T09:21:29.578Z,100.0
2018-12-29T09:22:30.255Z,100.0
2018-12-29T09:23:30.929Z,100.0
2018-12-29T09:24:31.604Z,100.0
2018-12-29T09:25:32.286Z,100.0
2018-12-29T09:26:33.005Z,100.0
2018-12-29T09:27:33.681Z,100.0
2018-12-29T09:28:34.356Z,100.0
2018-12-29T09:29:35.032Z,100.0
2018-12-29T09:30:35.706Z,100.0
2018-12-29T09:31:36.382Z,100.0
2018-12-29T09:32:37.073Z,100.0
2018-12-29T09:33:37.734Z,100.0
2018-12-29T09:34:38.408Z,100.0
2018-12-29T09:35:39.082Z,100.0
2018-12-29T09:36:39.757Z,100.0
2018-12-29T09:37:40.434Z,100.0
2018-12-29T09:38:41.158Z,100.0
2018-12-29T09:39:41.835Z,100.0
2018-12-29T09:40:42.511Z,100.0
2018-12-29T09:41:43.188Z,100.0
2018-12-29T09:42:43.862Z,100.0
2018-12-29T09:43:44.536Z,100.0
2018-12-29T09:44:45.213Z,100.0
2018-12-29T09:45:45.888Z,100.0
2018-12-29T09:46:46.565Z,100.0
2018-12-29T09:47:47.241Z,100.0
2018-12-29T09:48:47.916Z,100.0
2018-12-29T09:49:48.596Z,100.0
2018-12-29T09:50:49.316Z,100.0
2018-12-29T09:51:49.993Z,100.0
2018-12-29T09:52:50.669Z,100.0
2018-12-29T09:53:51.345Z,100.0
2018-12-29T09:54:52.024Z,100.0
2018-12-29T09:55:52.745Z,100.0
2018-12-29T09:56:53.419Z,99.9
2018-12-29T09:57:54.094Z,99.8
2018-12-29T09:58:54.771Z,100.0
2018-12-29T09:59:55.450Z,100.0
2018-12-29T10:00:56.125Z,97.5
2018-12-29T10:01:56.799Z,97.8
2018-12-29T10:02:57.477Z,97.3
2018-12-29T10:03:58.198Z,97.1
2018-12-29T10:04:58.872Z,97.5
2018-12-29T10:05:59.551Z,97.3
2018-12-29T10:07:00.224Z,97.4
2018-12-29T10:08:00.899Z,97.5
2018-12-29T10:09:01.575Z,97.4
2018-12-29T10:10:02.249Z,97.5
2018-12-29T10:11:02.925Z,97.4
2018-12-29T10:12:03.601Z,97.6
2018-12-29T10:13:04.273Z,96.7
2018-12-29T10:14:04.950Z,95.9
2018-12-29T10:15:05.626Z,95.6
2018-12-29T10:16:06.302Z,95.6
2018-12-29T10:17:06.976Z,95.6
2018-12-29T10:18:07.650Z,96.0
2018-12-29T10:19:08.327Z,95.8
2018-12-29T10:20:09.003Z,96.2
2018-12-29T10:21:09.726Z,95.9
2018-12-29T10:22:10.399Z,95.9
2018-12-29T10:23:11.073Z,95.7
2018-12-29T10:24:11.750Z,96.1
2018-12-29T10:25:12.475Z,95.1
2018-12-29T10:26:13.151Z,94.5
2018-12-29T10:27:13.828Z,94.7
2018-12-29T10:28:14.549Z,94.6
2018-12-29T10:29:15.225Z,94.7
2018-12-29T10:30:15.900Z,94.6
2018-12-29T10:31:16.577Z,94.3
2018-12-29T10:32:17.252Z,94.5
2018-12-29T10:33:17.927Z,93.9
2018-12-29T10:34:18.603Z,93.6
2018-12-29T10:35:19.279Z,94.1
2018-12-29T10:36:19.953Z,94.2
2018-12-29T10:37:20.629Z,94.3
2018-12-29T10:38:21.305Z,94.9
2018-12-29T10:39:21.984Z,95.0
2018-12-29T10:40:22.655Z,94.3
2018-12-29T10:41:23.330Z,94.2
2018-12-29T10:42:24.006Z,94.5
2018-12-29T10:43:24.682Z,93.7
2018-12-29T10:44:25.357Z,95.0
2018-12-29T10:45:26.031Z,95.2
2018-12-29T10:46:26.706Z,95.3
2018-12-29T10:47:34.332Z,95.7
2018-12-29T10:48:29.052Z,96.5
2018-12-29T10:49:29.779Z,96.0
2018-12-29T10:50:30.461Z,96.5
2018-12-29T10:51:31.180Z,96.9
2018-12-29T10:52:31.855Z,97.4
2018-12-29T10:53:32.532Z,97.7
2018-12-29T10:54:33.210Z,97.3
2018-12-29T10:55:33.885Z,97.5
2018-12-29T10:56:34.562Z,97.5
2018-12-29T10:57:35.236Z,97.9
2018-12-29T10:58:36.039Z,97.8
2018-12-29T10:59:36.717Z,97.7
2018-12-29T11:00:37.392Z,97.3
2018-12-29T11:01:38.069Z,97.6
2018-12-29T11:02:38.744Z,97.3
2018-12-29T11:03:39.422Z,97.1
2018-12-29T11:04:40.125Z,96.2
2018-12-29T11:05:40.885Z,96.3
2018-12-29T11:06:41.562Z,96.2
2018-12-29T11:07:42.238Z,95.7
2018-12-29T11:08:42.926Z,96.1
2018-12-29T11:09:43.650Z,95.9
2018-12-29T11:10:44.325Z,95.6
2018-12-29T11:11:45.001Z,95.9
2018-12-29T11:12:45.677Z,96.3
2018-12-29T11:13:46.354Z,95.6
2018-12-29T11:14:47.032Z,96.1
2018-12-29T11:15:47.708Z,96.0
2018-12-29T11:16:48.385Z,95.3
2018-12-29T11:17:49.063Z,95.1
2018-12-29T11:18:49.847Z,95.3
2018-12-29T11:19:50.535Z,94.0
2018-12-29T11:20:51.214Z,94.3
2018-12-29T11:21:51.899Z,94.2
2018-12-29T11:22:52.575Z,93.9
2018-12-29T11:23:53.302Z,94.2
2018-12-29T11:24:53.982Z,94.3
2018-12-29T11:25:54.666Z,94.2
2018-12-29T11:26:55.349Z,94.5
2018-12-29T11:27:56.025Z,94.6
2018-12-29T11:28:56.700Z,94.3
2018-12-29T11:29:57.378Z,94.2
2018-12-29T11:30:58.052Z,94.6
2018-12-29T11:31:58.727Z,94.6
2018-12-29T11:32:59.404Z,94.3
2018-12-29T11:34:00.082Z,94.2
2018-12-29T11:35:00.758Z,94.1
2018-12-29T11:36:01.431Z,93.9
2018-12-29T11:37:02.107Z,94.2
2018-12-29T11:38:02.783Z,94.2
2018-12-29T11:39:03.458Z,94.4
2018-12-29T11:40:04.194Z,94.7
2018-12-29T11:41:04.869Z,94.7
2018-12-29T11:42:05.562Z,94.7
2018-12-29T11:43:06.237Z,94.7
2018-12-29T11:44:06.914Z,94.6
2018-12-29T11:45:07.691Z,94.4
2018-12-29T11:46:08.367Z,95.1
2018-12-29T11:47:09.141Z,94.8
2018-12-29T11:48:09.869Z,94.8
2018-12-29T11:49:17.846Z,95.0
2018-12-29T11:50:12.208Z,95.2
2018-12-29T11:51:12.890Z,94.6
2018-12-29T11:52:13.661Z,94.3
2018-12-29T11:53:14.327Z,94.6
2018-12-29T11:54:15.005Z,93.9
2018-12-29T11:55:15.681Z,93.7
2018-12-29T11:56:16.356Z,93.7
2018-12-29T11:57:17.030Z,93.6
2018-12-29T11:58:17.706Z,93.7
2018-12-29T11:59:18.383Z,94.1
2018-12-29T12:00:19.060Z,93.7
2018-12-29T12:01:19.734Z,93.8
2018-12-29T12:02:24.447Z,94.3
2018-12-29T12:03:22.077Z,93.7
2018-12-29T12:04:23.094Z,93.6
2018-12-29T12:05:23.820Z,93.4
2018-12-29T12:06:24.497Z,93.5
2018-12-29T12:07:25.172Z,93.6
2018-12-29T12:08:25.847Z,93.2
2018-12-29T12:09:26.522Z,93.6
2018-12-29T12:10:27.197Z,92.9
2018-12-29T12:11:27.875Z,92.8
2018-12-29T12:12:28.549Z,92.4
2018-12-29T12:13:29.227Z,92.4
2018-12-29T12:14:30.151Z,92.4
2018-12-29T12:15:30.854Z,92.0
2018-12-29T12:16:31.541Z,92.2
2018-12-29T12:17:32.254Z,91.8
2018-12-29T12:18:32.930Z,91.4
2018-12-29T12:19:33.605Z,91.5
2018-12-29T12:20:34.282Z,91.4
2018-12-29T12:21:34.959Z,91.5
2018-12-29T12:22:35.632Z,91.5
2018-12-29T12:23:36.311Z,91.3
2018-12-29T12:24:37.229Z,91.1
2018-12-29T12:25:37.905Z,90.9
2018-12-29T12:26:38.954Z,90.9
2018-12-29T12:27:39.679Z,90.4
2018-12-29T12:28:40.353Z,90.3
2018-12-29T12:29:41.035Z,90.3
2018-12-29T12:30:41.762Z,90.4
2018-12-29T12:31:42.644Z,91.2
2018-12-29T12:32:43.318Z,91.3
2018-12-29T12:33:43.993Z,91.2
2018-12-29T12:34:44.670Z,90.9
2018-12-29T12:35:45.345Z,91.1
2018-12-29T12:36:46.297Z,91.6
2018-12-29T12:37:46.974Z,91.2
2018-12-29T12:38:47.701Z,91.2
2018-12-29T12:39:48.427Z,91.2
2018-12-29T12:40:49.150Z,91.3
2018-12-29T12:41:49.992Z,91.4
2018-12-29T12:42:50.668Z,91.0
2018-12-29T12:43:51.341Z,90.8
2018-12-29T12:44:52.016Z,90.8
2018-12-29T12:45:52.690Z,90.4
2018-12-29T12:46:53.367Z,90.3
2018-12-29T12:47:54.141Z,90.2
2018-12-29T12:48:54.893Z,90.1
2018-12-29T12:49:55.702Z,89.8
2018-12-29T12:50:56.634Z,89.6
2018-12-29T12:51:57.310Z,89.9
2018-12-29T12:52:57.984Z,89.3
2018-12-29T12:53:58.688Z,89.3
2018-12-29T12:54:59.519Z,89.3
2018-12-29T12:56:00.199Z,89.2
2018-12-29T12:57:01.068Z,88.8
2018-12-29T12:58:02.078Z,88.9
2018-12-29T12:59:03.093Z,88.9
2018-12-29T13:00:03.765Z,89.0
2018-12-29T13:01:04.798Z,89.2
2018-12-29T13:02:05.815Z,89.2
2018-12-29T13:03:06.540Z,89.2
2018-12-29T13:04:07.218Z,89.8
2018-12-29T13:05:07.893Z,89.0
2018-12-29T13:06:08.568Z,89.8
2018-12-29T13:07:09.243Z,89.1
2018-12-29T13:08:09.918Z,89.0
2018-12-29T13:09:10.595Z,89.0
2018-12-29T13:10:11.271Z,89.8